Time;durP1;ratioP1;P1;durP2;ratioP2;P2;SDS_P1;SDS_P2;PMS_P1;PMS_P2;Temp;Humidity;BMP_temperature;BMP_pressure;BME280_temperature;BME280_humidity;BME280_pressure;Samples;Min_cycle;Max_cycle;Signal;HPM_P1;HPM_P2
2022/05/10 00:01:46;;;;;;;5.47;4.93;;;10.40;99.90;;;;;;4195162;28;20090;-86
2022/05/10 00:03:49;;;;;;;7.28;6.57;;;10.40;99.90;;;;;;4182725;28;20053;-86
2022/05/10 00:05:52;;;;;;;5.85;5.45;;;10.40;99.90;;;;;;4182701;28;20048;-86
2022/05/10 00:07:55;;;;;;;6.15;5.78;;;10.40;99.90;;;;;;4195310;28;20045;-86
2022/05/10 00:09:57;;;;;;;6.25;6.05;;;10.30;99.90;;;;;;4184475;28;20061;-86
2022/05/10 00:11:59;;;;;;;7.68;7.05;;;10.30;99.90;;;;;;4179379;28;20099;-86
2022/05/10 00:14:01;;;;;;;11.25;6.55;;;10.30;99.90;;;;;;4177454;28;20045;-86
2022/05/10 00:16:11;;;;;;;6.80;6.43;;;10.40;99.90;;;;;;4195177;28;20056;-86
2022/05/10 00:18:15;;;;;;;6.63;6.28;;;10.30;99.90;;;;;;4167007;28;20435;-86
2022/05/10 00:20:23;;;;;;;8.40;7.78;;;10.30;99.90;;;;;;4160649;28;20041;-86
2022/05/10 00:22:26;;;;;;;5.63;5.38;;;10.40;99.90;;;;;;4161095;28;20081;-86
2022/05/10 00:24:29;;;;;;;6.07;5.68;;;10.40;99.90;;;;;;4178866;28;20049;-86
2022/05/10 00:26:32;;;;;;;9.55;7.30;;;10.40;99.90;;;;;;4160931;28;20759;-86
2022/05/10 00:28:34;;;;;;;6.18;5.88;;;10.40;99.90;;;;;;4178217;28;20045;-86
2022/05/10 00:30:37;;;;;;;8.68;7.88;;;10.30;99.90;;;;;;4177512;28;20063;-86
2022/05/10 00:32:40;;;;;;;7.88;6.97;;;10.30;99.90;;;;;;4177048;28;20087;-86
2022/05/10 00:34:43;;;;;;;7.10;6.45;;;10.20;99.90;;;;;;4183057;28;20045;-85
2022/05/10 00:36:46;;;;;;;11.52;6.78;;;10.00;99.90;;;;;;4193631;28;20056;-86
2022/05/10 00:38:48;;;;;;;;;;;10.10;99.90;;;;;;4177415;28;20053;-86
2022/05/10 00:40:51;;;;;;;8.25;6.95;;;10.10;99.90;;;;;;4192205;28;19951;-86
2022/05/10 00:43:01;;;;;;;8.57;5.88;;;10.20;99.90;;;;;;4178575;28;20053;-86
2022/05/10 00:45:15;;;;;;;6.22;5.93;;;10.20;99.90;;;;;;4191612;28;20526;-86
2022/05/10 00:47:33;;;;;;;6.25;5.63;;;10.10;99.90;;;;;;4194679;28;20519;-86
2022/05/10 00:49:43;;;;;;;7.75;7.03;;;10.10;99.90;;;;;;4194192;28;20499;-86
2022/05/10 00:52:21;;;;;;;6.78;6.28;;;9.90;99.90;;;;;;4177046;28;20156;-86
2022/05/10 00:54:32;;;;;;;5.70;5.32;;;9.90;99.90;;;;;;4193735;28;20075;-86
2022/05/10 00:56:54;;;;;;;6.20;6.03;;;9.80;99.90;;;;;;4176975;28;20055;-86
2022/05/10 00:59:08;;;;;;;6.60;6.15;;;9.80;99.90;;;;;;4194098;28;20595;-86
2022/05/10 01:01:16;;;;;;;5.70;5.22;;;9.50;99.90;;;;;;4183071;28;20057;-86
2022/05/10 01:03:24;;;;;;;4.90;4.70;;;9.40;99.90;;;;;;4165408;28;20049;-86
2022/05/10 01:05:55;;;;;;;6.55;6.15;;;9.50;99.90;;;;;;4177684;28;20512;-85
2022/05/10 01:08:12;;;;;;;6.82;6.35;;;9.50;99.90;;;;;;4173617;28;20052;-86
2022/05/10 01:10:24;;;;;;;5.95;5.70;;;9.40;99.90;;;;;;4194385;28;20048;-86
2022/05/10 01:12:42;;;;;;;6.45;4.97;;;9.40;99.90;;;;;;4193620;28;20474;-85
2022/05/10 01:14:54;;;;;;;8.25;6.53;;;9.40;99.90;;;;;;4178107;28;20056;-86
2022/05/10 01:16:58;;;;;;;5.72;5.53;;;9.30;99.90;;;;;;4177780;28;20137;-86
2022/05/10 01:19:01;;;;;;;5.43;5.20;;;9.30;99.90;;;;;;4177887;28;20061;-86
2022/05/10 01:21:37;;;;;;;5.80;5.60;;;9.30;99.90;;;;;;4176414;28;20052;-85
2022/05/10 01:23:52;;;;;;;5.07;4.55;;;9.20;99.90;;;;;;4176383;28;20497;-86
2022/05/10 01:26:18;;;;;;;6.10;5.70;;;9.40;99.90;;;;;;4183775;28;20056;-86
2022/05/10 01:28:32;;;;;;;6.18;5.18;;;9.40;99.90;;;;;;4176726;28;20045;-86
2022/05/10 01:30:35;;;;;;;5.10;4.80;;;9.40;99.90;;;;;;4176651;28;20117;-86
2022/05/10 01:35:12;;;;;;;7.03;5.90;;;9.30;99.90;;;;;;4191193;28;19925;-86
2022/05/10 01:37:21;;;;;;;5.65;5.07;;;9.20;99.90;;;;;;4177545;28;20052;-86
2022/05/10 01:39:35;;;;;;;6.28;5.72;;;9.20;99.90;;;;;;4188170;28;20053;-86
2022/05/10 01:41:46;;;;;;;7.10;5.15;;;9.10;99.90;;;;;;4163933;28;20536;-86
2022/05/10 01:44:33;;;;;;;7.30;5.72;;;9.20;99.90;;;;;;4193872;28;20128;-86
2022/05/10 01:46:35;;;;;;;6.25;5.88;;;9.20;99.90;;;;;;4109781;28;20093;-86
2022/05/10 01:48:40;;;;;;;5.78;5.57;;;9.20;99.90;;;;;;4109903;28;20050;-86
2022/05/10 01:50:57;;;;;;;5.43;5.20;;;9.20;99.90;;;;;;4121675;28;20054;-85
2022/05/10 01:53:36;;;;;;;7.97;6.65;;;9.00;99.90;;;;;;4093893;29;20098;-86
2022/05/10 01:55:42;;;;;;;5.93;5.50;;;8.90;99.90;;;;;;4107913;28;20058;-85
2022/05/10 01:57:44;;;;;;;7.55;6.18;;;8.90;99.90;;;;;;4109768;28;20065;-84
2022/05/10 01:59:55;;;;;;;7.80;7.40;;;8.70;99.90;;;;;;4110137;28;20057;-85
2022/05/10 02:01:59;;;;;;;6.90;6.45;;;8.80;99.90;;;;;;4106676;28;20051;-86
2022/05/10 02:04:25;;;;;;;6.80;6.20;;;8.70;99.90;;;;;;4109962;28;20047;-84
2022/05/10 02:06:32;;;;;;;6.55;6.30;;;8.70;99.90;;;;;;4094146;29;20058;-86
2022/05/10 02:08:42;;;;;;;5.80;5.50;;;8.70;99.90;;;;;;4106757;28;20050;-85
2022/05/10 02:10:49;;;;;;;6.10;5.80;;;8.80;99.90;;;;;;4118725;28;20057;-85
2022/05/10 02:13:01;;;;;;;6.47;5.88;;;8.90;99.90;;;;;;4110073;28;20046;-86
2022/05/10 02:15:44;;;;;;;6.38;5.90;;;8.90;99.90;;;;;;4078498;29;20051;-86
2022/05/10 02:18:20;;;;;;;5.93;5.72;;;8.70;99.90;;;;;;4033713;29;20067;-85
2022/05/10 02:20:57;;;;;;;6.47;6.03;;;8.60;99.90;;;;;;4117428;28;20057;-86
2022/05/10 02:23:09;;;;;;;6.18;5.80;;;8.70;99.90;;;;;;4168058;28;20432;-86
2022/05/10 02:25:20;;;;;;;9.18;6.35;;;8.80;99.90;;;;;;4193550;28;20079;-86
2022/05/10 02:28:01;;;;;;;6.38;6.15;;;8.80;99.90;;;;;;4180648;28;20053;-86
2022/05/10 02:30:08;;;;;;;6.65;6.25;;;8.70;99.90;;;;;;4168140;28;20087;-86
2022/05/10 02:34:42;;;;;;;5.95;5.70;;;8.60;99.90;;;;;;4193428;28;20063;-86
2022/05/10 02:36:44;;;;;;;8.93;6.97;;;8.60;99.90;;;;;;4175716;28;20040;-85
2022/05/10 02:38:47;;;;;;;6.85;6.40;;;8.50;99.90;;;;;;4189009;28;20530;-85
2022/05/10 02:40:52;;;;;;;7.18;6.78;;;8.50;99.90;;;;;;4159128;28;20056;-86
2022/05/10 02:42:54;;;;;;;7.38;6.72;;;8.50;99.90;;;;;;4175508;28;20045;-86
2022/05/10 02:44:56;;;;;;;8.15;7.55;;;8.20;99.90;;;;;;4189385;28;20064;-86
2022/05/10 02:46:58;;;;;;;;;;;8.10;99.90;;;;;;4177372;28;20045;-85
2022/05/10 02:49:00;;;;;;;6.72;6.18;;;8.10;99.90;;;;;;4175768;28;19925;-86
2022/05/10 02:51:03;;;;;;;11.52;6.93;;;8.20;99.90;;;;;;4175830;28;20049;-85
2022/05/10 02:53:05;;;;;;;6.97;6.65;;;8.20;99.90;;;;;;4193230;28;20056;-86
2022/05/10 02:55:14;;;;;;;5.40;5.20;;;8.20;99.90;;;;;;4175901;28;20055;-86
2022/05/10 02:57:16;;;;;;;6.45;5.97;;;8.30;99.90;;;;;;4193183;28;20127;-86
2022/05/10 02:59:24;;;;;;;8.48;6.07;;;8.40;99.90;;;;;;4193120;28;20048;-85
2022/05/10 03:01:35;;;;;;;5.72;5.20;;;8.50;99.90;;;;;;4192470;28;20048;-85
2022/05/10 03:03:37;;;;;;;5.93;5.47;;;8.50;99.90;;;;;;4175364;28;20051;-85
2022/05/10 03:05:39;;;;;;;6.13;5.45;;;8.50;99.90;;;;;;4193639;28;20443;-86
2022/05/10 03:07:42;;;;;;;6.43;6.03;;;8.40;99.90;;;;;;4193320;28;20052;-86
2022/05/10 03:09:44;;;;;;;6.50;6.00;;;8.30;99.90;;;;;;4175364;28;20056;-85
2022/05/10 03:11:46;;;;;;;6.32;5.75;;;8.30;99.90;;;;;;4176170;28;20063;-86
2022/05/10 03:13:49;;;;;;;6.05;5.90;;;8.20;99.90;;;;;;4178350;28;20393;-85
2022/05/10 03:15:54;;;;;;;6.32;5.80;;;8.20;99.90;;;;;;4196117;28;20162;-85
2022/05/10 03:17:58;;;;;;;6.45;6.00;;;8.00;99.90;;;;;;4178026;28;20564;-86
2022/05/10 03:20:00;;;;;;;6.43;6.13;;;7.90;99.90;;;;;;4179699;28;20049;-86
2022/05/10 03:22:03;;;;;;;7.57;7.10;;;7.70;99.90;;;;;;4178437;28;20048;-86
2022/05/10 03:24:06;;;;;;;6.28;5.78;;;7.70;99.90;;;;;;4178337;28;20060;-85
2022/05/10 03:26:11;;;;;;;5.40;5.13;;;7.70;99.90;;;;;;4179485;28;20077;-86
2022/05/10 03:28:14;;;;;;;6.32;5.80;;;7.80;99.90;;;;;;4178168;28;20187;-85
2022/05/10 03:30:16;;;;;;;;;;;7.90;99.90;;;;;;4178641;28;20052;-85
2022/05/10 03:32:18;;;;;;;6.40;5.88;;;7.80;99.90;;;;;;4181712;28;20466;-85
2022/05/10 03:36:41;;;;;;;6.25;6.05;;;7.70;99.90;;;;;;4195988;28;20049;-86
2022/05/10 03:38:43;;;;;;;5.82;5.47;;;7.70;99.90;;;;;;4178139;28;20049;-85
2022/05/10 03:40:45;;;;;;;6.45;6.20;;;7.70;99.90;;;;;;4195843;28;20052;-85
2022/05/10 03:42:50;;;;;;;6.18;5.93;;;7.60;99.90;;;;;;4195696;28;20446;-86
2022/05/10 03:44:53;;;;;;;6.40;6.10;;;7.60;99.90;;;;;;4177658;28;20059;-86
2022/05/10 03:46:55;;;;;;;;;;;7.60;99.90;;;;;;4145822;28;20140;-86
2022/05/10 03:48:57;;;;;;;5.85;5.55;;;7.50;99.90;;;;;;4177460;28;20423;-85
2022/05/10 03:50:59;;;;;;;6.70;6.22;;;7.50;99.90;;;;;;4179018;28;20150;-86
2022/05/10 03:53:01;;;;;;;6.70;6.18;;;7.50;99.90;;;;;;4161421;28;20080;-86
2022/05/10 03:55:06;;;;;;;7.25;6.82;;;7.40;99.90;;;;;;4161204;28;20049;-86
2022/05/10 03:57:14;;;;;;;6.20;5.82;;;7.40;99.90;;;;;;4161999;28;20057;-85
2022/05/10 03:59:17;;;;;;;6.90;6.60;;;7.60;99.90;;;;;;4178887;28;20064;-86
2022/05/10 04:01:21;;;;;;;7.43;6.88;;;7.50;99.90;;;;;;4169214;28;20049;-85
2022/05/10 04:03:23;;;;;;;6.70;6.30;;;7.50;99.90;;;;;;4178995;28;20057;-86
2022/05/10 04:05:26;;;;;;;6.28;5.95;;;7.50;99.90;;;;;;4162196;28;20112;-85
2022/05/10 04:07:29;;;;;;;6.80;6.30;;;7.50;99.90;;;;;;4178787;28;20489;-85
2022/05/10 04:09:31;;;;;;;7.55;7.07;;;7.60;99.90;;;;;;4178923;28;20123;-86
2022/05/10 04:11:34;;;;;;;8.63;7.75;;;7.60;99.90;;;;;;4161206;28;20041;-85
2022/05/10 04:13:38;;;;;;;6.47;5.95;;;7.70;99.90;;;;;;4178477;28;20040;-86
2022/05/10 04:15:40;;;;;;;6.75;6.40;;;7.70;99.90;;;;;;4177706;28;20141;-86
2022/05/10 04:17:42;;;;;;;7.05;6.45;;;7.70;99.90;;;;;;4177042;28;20048;-85
2022/05/10 04:19:44;;;;;;;7.50;7.15;;;7.60;99.90;;;;;;4160939;28;20189;-86
2022/05/10 04:21:48;;;;;;;7.47;7.00;;;7.50;99.90;;;;;;4160554;28;20049;-86
2022/05/10 04:23:50;;;;;;;6.72;6.43;;;7.50;99.90;;;;;;4173471;28;20558;-85
2022/05/10 04:25:52;;;;;;;7.20;6.68;;;7.50;99.90;;;;;;4178704;28;20072;-85
2022/05/10 04:27:55;;;;;;;9.27;7.75;;;7.50;99.90;;;;;;4160711;28;20056;-85
2022/05/10 04:29:57;;;;;;;7.60;7.07;;;7.50;99.90;;;;;;4160413;28;20045;-86
2022/05/10 04:31:59;;;;;;;7.40;6.95;;;7.50;99.90;;;;;;4177390;28;20068;-86
2022/05/10 04:34:01;;;;;;;8.05;7.30;;;7.60;99.90;;;;;;4191969;28;20052;-85
2022/05/10 04:36:04;;;;;;;6.90;6.63;;;7.60;99.90;;;;;;4193566;28;20051;-85
2022/05/10 04:38:08;;;;;;;10.13;6.28;;;7.60;99.90;;;;;;4194098;28;20051;-85
2022/05/10 04:42:32;;;;;;;7.07;6.47;;;7.50;99.90;;;;;;4178310;28;20063;-86
2022/05/10 04:44:34;;;;;;;7.90;7.50;;;7.40;99.90;;;;;;4170998;28;20091;-85
2022/05/10 04:46:37;;;;;;;8.00;7.68;;;7.30;99.90;;;;;;4178588;28;20548;-85
2022/05/10 04:48:41;;;;;;;6.53;6.03;;;7.30;99.90;;;;;;4177921;28;20048;-85
2022/05/10 04:50:43;;;;;;;9.85;9.18;;;7.30;99.90;;;;;;4164731;28;20416;-85
2022/05/10 04:52:50;;;;;;;9.45;8.65;;;7.30;99.90;;;;;;4177120;28;20053;-85
2022/05/10 04:54:52;;;;;;;8.90;8.10;;;7.40;99.90;;;;;;4178612;28;20412;-85
2022/05/10 04:56:55;;;;;;;8.48;6.63;;;7.40;99.90;;;;;;4161161;28;20045;-85
2022/05/10 04:59:02;;;;;;;10.50;8.13;;;7.40;99.90;;;;;;4161467;28;20049;-85
2022/05/10 05:01:07;;;;;;;8.23;7.82;;;7.30;99.90;;;;;;4177259;28;20401;-85
2022/05/10 05:03:09;;;;;;;6.50;6.20;;;7.40;99.90;;;;;;4160846;28;20099;-85
2022/05/10 05:05:13;;;;;;;7.47;6.93;;;7.60;99.90;;;;;;4160645;28;20049;-86
2022/05/10 05:07:15;;;;;;;7.40;6.78;;;7.60;99.90;;;;;;4162685;28;20100;-86
2022/05/10 05:09:17;;;;;;;6.20;5.80;;;7.70;99.90;;;;;;4180287;28;20049;-86
2022/05/10 05:11:19;;;;;;;6.35;5.90;;;7.80;99.90;;;;;;4161597;28;20521;-86
2022/05/10 05:13:21;;;;;;;6.20;5.72;;;7.90;99.90;;;;;;4162722;28;20053;-85
2022/05/10 05:15:23;;;;;;;8.75;6.78;;;8.00;99.90;;;;;;4162824;28;20057;-85
2022/05/10 05:17:26;;;;;;;7.80;6.68;;;8.00;99.90;;;;;;4162073;28;20063;-86
2022/05/10 05:19:28;;;;;;;;;;;8.00;99.90;;;;;;4179780;28;20073;-85
2022/05/10 05:21:30;;;;;;;9.93;5.85;;;8.10;99.90;;;;;;4178666;28;19929;-85
2022/05/10 05:23:32;;;;;;;6.68;6.15;;;8.10;99.90;;;;;;4162313;28;20120;-86
2022/05/10 05:25:36;;;;;;;5.95;5.72;;;8.20;99.90;;;;;;4161322;28;20561;-86
2022/05/10 05:27:38;;;;;;;7.43;6.18;;;8.20;99.90;;;;;;4162471;28;20049;-89
2022/05/10 05:29:40;;;;;;;6.75;6.25;;;8.30;99.90;;;;;;4171415;28;20124;-89
2022/05/10 05:32:08;;;;;;;6.22;5.63;;;8.40;99.90;;;;;;4178330;28;20048;-89
2022/05/10 05:34:11;;;;;;;6.32;5.82;;;8.50;99.90;;;;;;4160828;28;20072;-89
2022/05/10 05:36:13;;;;;;;5.75;5.55;;;8.50;99.90;;;;;;4160845;28;20080;-89
2022/05/10 05:38:15;;;;;;;9.20;6.15;;;8.50;99.90;;;;;;4177374;28;20052;-89
2022/05/10 05:40:18;;;;;;;8.70;5.22;;;8.60;99.90;;;;;;4178144;28;20052;-89
2022/05/10 05:42:22;;;;;;;6.32;5.93;;;8.60;99.90;;;;;;4178422;28;20060;-89
2022/05/10 05:44:24;;;;;;;5.85;4.85;;;8.80;99.90;;;;;;4160458;28;20073;-89
2022/05/10 05:46:27;;;;;;;7.68;5.20;;;8.90;99.90;;;;;;4144575;28;20058;-89
2022/05/10 05:48:30;;;;;;;6.60;5.97;;;9.00;99.90;;;;;;4144326;28;20113;-89
2022/05/10 05:50:32;;;;;;;5.97;5.50;;;9.10;99.90;;;;;;4160412;28;20055;-89
2022/05/10 05:52:35;;;;;;;7.90;6.35;;;9.10;99.90;;;;;;4158911;28;20049;-89
2022/05/10 05:54:39;;;;;;;11.18;5.70;;;9.20;99.90;;;;;;4160327;28;20042;-89
2022/05/10 05:56:41;;;;;;;6.10;5.57;;;9.30;99.90;;;;;;4176904;28;20045;-89
2022/05/10 05:58:43;;;;;;;5.82;5.30;;;9.50;99.90;;;;;;4177133;28;20044;-89
2022/05/10 06:00:46;;;;;;;6.30;5.57;;;9.60;99.90;;;;;;4170464;28;20074;-87
2022/05/10 06:02:50;;;;;;;6.13;5.28;;;9.60;99.90;;;;;;4159264;28;20053;-87
2022/05/10 06:04:52;;;;;;;4.95;4.68;;;9.60;99.90;;;;;;4160256;28;20053;-87
2022/05/10 06:06:54;;;;;;;4.53;4.22;;;9.70;99.90;;;;;;4160391;28;20139;-87
2022/05/10 06:08:56;;;;;;;5.55;5.18;;;9.80;99.90;;;;;;4143847;28;20793;-87
2022/05/10 06:10:58;;;;;;;5.57;3.60;;;9.90;99.90;;;;;;4170342;28;20049;-87
2022/05/10 06:13:03;;;;;;;4.70;4.30;;;10.00;99.90;;;;;;4160380;28;20129;-87
2022/05/10 06:15:11;;;;;;;3.78;3.53;;;10.10;99.90;;;;;;4160423;28;20041;-87
2022/05/10 06:17:14;;;;;;;5.93;4.43;;;10.20;99.90;;;;;;4177568;28;20136;-88
2022/05/10 06:19:17;;;;;;;5.20;3.67;;;10.40;99.90;;;;;;4177811;28;20068;-87
2022/05/10 06:21:19;;;;;;;4.22;3.65;;;10.50;99.90;;;;;;4161681;28;20045;-87
2022/05/10 06:23:21;;;;;;;4.70;4.28;;;10.60;99.90;;;;;;4165379;28;20052;-87
2022/05/10 06:25:24;;;;;;;7.43;4.70;;;10.70;99.90;;;;;;4167349;28;20495;-87
2022/05/10 06:27:27;;;;;;;5.22;4.38;;;10.80;99.90;;;;;;4159659;28;20041;-87
2022/05/10 06:29:31;;;;;;;5.38;4.03;;;11.00;99.90;;;;;;4160139;28;20143;-87
2022/05/10 06:31:35;;;;;;;4.45;4.15;;;11.20;99.90;;;;;;4161238;28;20461;-87
2022/05/10 06:33:37;;;;;;;5.68;4.40;;;11.40;99.90;;;;;;4160154;28;20064;-87
2022/05/10 06:35:40;;;;;;;4.68;4.15;;;11.50;99.90;;;;;;4161680;28;20056;-87
2022/05/10 06:40:13;;;;;;;7.30;3.67;;;11.80;99.90;;;;;;4177731;28;20056;-87
2022/05/10 06:42:26;;;;;;;11.40;3.85;;;12.00;99.90;;;;;;4176289;28;20045;-87
2022/05/10 06:44:29;;;;;;;10.68;4.90;;;12.20;99.90;;;;;;4169549;28;20053;-88
2022/05/10 06:46:32;;;;;;;11.90;4.25;;;12.30;99.90;;;;;;4159916;28;20676;-88
2022/05/10 06:48:37;;;;;;;8.23;3.33;;;12.50;99.90;;;;;;4167247;28;20053;-88
2022/05/10 06:50:40;;;;;;;5.43;2.75;;;12.60;99.90;;;;;;4179824;28;20049;-88
2022/05/10 06:52:43;;;;;;;4.78;2.50;;;12.80;99.90;;;;;;4180352;28;20087;-87
2022/05/10 06:54:50;;;;;;;3.10;2.90;;;12.90;99.90;;;;;;4180948;28;20076;-88
2022/05/10 06:56:52;;;;;;;2.75;2.42;;;13.30;99.90;;;;;;4180735;28;20076;-87
2022/05/10 06:58:54;;;;;;;4.90;3.15;;;13.50;99.90;;;;;;4163162;28;20124;-87
2022/05/10 07:00:57;;;;;;;7.32;2.95;;;13.60;99.90;;;;;;4179567;28;20481;-88
2022/05/10 07:03:07;;;;;;;6.88;2.90;;;13.80;99.90;;;;;;4180749;28;20041;-88
2022/05/10 07:05:11;;;;;;;3.17;2.72;;;14.10;99.90;;;;;;4180396;28;20471;-88
2022/05/10 07:07:13;;;;;;;3.03;1.98;;;14.20;99.90;;;;;;4162944;28;20053;-88
2022/05/10 07:09:15;;;;;;;3.30;2.20;;;14.20;99.90;;;;;;4163010;28;20048;-88
2022/05/10 07:11:18;;;;;;;4.53;2.38;;;14.20;99.90;;;;;;4162623;28;20082;-88
2022/05/10 07:13:23;;;;;;;6.70;2.65;;;14.30;99.90;;;;;;4163092;28;20045;-88
2022/05/10 07:15:25;;;;;;;2.85;1.67;;;14.40;99.90;;;;;;4180198;28;20056;-88
2022/05/10 07:17:27;;;;;;;3.88;2.47;;;14.40;99.90;;;;;;4178926;28;20045;-87
2022/05/10 07:19:29;;;;;;;5.18;2.85;;;14.70;99.90;;;;;;4162848;28;20073;-87
2022/05/10 07:21:33;;;;;;;7.25;3.78;;;14.80;99.90;;;;;;4162146;28;20083;-88
2022/05/10 07:23:35;;;;;;;7.03;3.80;;;14.90;99.90;;;;;;4162643;28;20034;-86
2022/05/10 07:25:39;;;;;;;3.28;2.97;;;15.00;99.90;;;;;;4146550;28;20050;-86
2022/05/10 07:27:42;;;;;;;6.47;3.15;;;15.20;99.90;;;;;;4173315;28;20048;-86
2022/05/10 07:29:44;;;;;;;10.73;3.83;;;15.40;99.90;;;;;;4162012;28;20548;-86
2022/05/10 07:31:48;;;;;;;7.78;3.35;;;15.50;99.90;;;;;;4162257;28;20057;-86
2022/05/10 07:33:51;;;;;;;5.82;2.15;;;15.80;99.90;;;;;;4162397;28;20124;-86
2022/05/10 07:38:17;;;;;;;7.78;2.50;;;16.00;99.90;;;;;;4176275;28;20053;-86
2022/05/10 07:40:19;;;;;;;11.60;2.65;;;16.10;99.90;;;;;;4162118;28;20132;-86
2022/05/10 07:42:22;;;;;;;6.82;3.22;;;16.30;99.90;;;;;;4162327;28;20080;-86
2022/05/10 07:44:25;;;;;;;2.28;2.08;;;16.40;99.90;;;;;;4167368;28;20065;-86
2022/05/10 07:46:27;;;;;;;;;;;16.60;99.90;;;;;;4196936;28;20123;-86
2022/05/10 07:48:29;;;;;;;5.72;2.30;;;16.70;99.90;;;;;;4178665;28;19928;-86
2022/05/10 07:50:31;;;;;;;7.35;2.40;;;16.70;99.90;;;;;;4196298;28;20056;-86
2022/05/10 07:52:33;;;;;;;7.05;3.17;;;16.80;99.90;;;;;;4190589;28;20554;-86
2022/05/10 07:54:36;;;;;;;12.88;2.72;;;17.00;99.90;;;;;;4178720;28;20079;-86
2022/05/10 07:56:40;;;;;;;2.92;2.33;;;17.20;99.90;;;;;;4178346;28;20115;-86
2022/05/10 07:58:42;;;;;;;4.45;2.45;;;17.50;99.90;;;;;;4180966;28;20076;-86
2022/05/10 08:00:45;;;;;;;11.65;1.88;;;17.70;99.90;;;;;;4196143;28;20060;-86
2022/05/10 08:02:47;;;;;;;4.88;2.10;;;17.80;99.90;;;;;;4195724;28;20328;-86
2022/05/10 08:04:49;;;;;;;4.32;2.75;;;17.90;99.90;;;;;;4178305;28;20075;-87
2022/05/10 08:06:52;;;;;;;6.57;2.10;;;17.90;99.90;;;;;;4178304;28;20718;-86
2022/05/10 08:08:54;;;;;;;3.92;2.28;;;18.00;99.90;;;;;;4178441;28;20057;-86
2022/05/10 08:10:57;;;;;;;7.70;2.15;;;18.10;99.90;;;;;;4178317;28;20048;-86
2022/05/10 08:13:02;;;;;;;9.35;2.58;;;18.20;99.90;;;;;;4180689;28;20044;-87
2022/05/10 08:15:05;;;;;;;7.47;3.33;;;18.50;99.90;;;;;;4167721;28;20057;-87
2022/05/10 08:17:09;;;;;;;5.20;2.00;;;18.80;99.90;;;;;;4178050;28;20056;-87
2022/05/10 08:19:11;;;;;;;3.90;1.58;;;18.90;99.90;;;;;;4175180;28;20567;-87
2022/05/10 08:21:14;;;;;;;14.52;2.10;;;18.80;99.90;;;;;;4191713;28;20111;-87
2022/05/10 08:23:24;;;;;;;3.28;1.52;;;18.90;99.90;;;;;;4194904;28;20053;-87
2022/05/10 08:25:26;;;;;;;3.80;1.40;;;19.20;99.90;;;;;;4191500;28;20044;-87
2022/05/10 08:27:29;;;;;;;1.92;1.70;;;19.50;99.90;;;;;;4195408;28;20052;-87
2022/05/10 08:29:32;;;;;;;3.75;1.77;;;19.70;99.90;;;;;;4195935;28;20052;-87
2022/05/10 08:31:34;;;;;;;2.38;1.20;;;19.90;99.90;;;;;;4178071;28;20207;-87
2022/05/10 08:33:39;;;;;;;3.75;1.50;;;20.10;99.90;;;;;;4178011;28;20170;-87
2022/05/10 08:35:42;;;;;;;4.60;1.25;;;20.20;99.90;;;;;;4178067;28;20056;-87
2022/05/10 08:37:44;;;;;;;5.88;1.52;;;20.40;99.90;;;;;;4186463;28;20592;-87
2022/05/10 08:39:47;;;;;;;5.30;1.35;;;20.40;99.90;;;;;;4195529;28;20056;-87
2022/05/10 08:41:57;;;;;;;4.88;1.35;;;20.50;99.90;;;;;;4162011;28;20539;-87
2022/05/10 08:44:16;;;;;;;4.20;1.30;;;20.80;99.90;;;;;;4177744;28;20051;-87
2022/05/10 08:46:24;;;;;;;1.63;1.30;;;21.10;99.90;;;;;;4178958;28;20410;-87
2022/05/10 08:48:29;;;;;;;4.72;2.00;;;21.40;99.90;;;;;;4177393;28;20114;-87
2022/05/10 08:50:32;;;;;;;2.40;1.00;;;21.60;99.90;;;;;;4177525;28;20154;-87
2022/05/10 08:52:43;;;;;;;2.25;1.38;;;21.60;99.90;;;;;;4193789;28;20615;-87
2022/05/10 08:54:45;;;;;;;4.35;1.10;;;21.60;99.90;;;;;;4195250;28;20575;-88
2022/05/10 08:57:15;;;;;;;5.13;1.92;;;21.90;99.90;;;;;;4177529;28;20049;-88
2022/05/10 08:59:42;;;;;;;4.32;1.00;;;22.00;99.90;;;;;;4174247;28;20061;-88
2022/05/10 09:02:01;;;;;;;1.58;1.27;;;22.10;99.90;;;;;;4178620;28;20087;-88
2022/05/10 09:04:25;;;;;;;1.00;0.90;;;22.30;99.90;;;;;;4176442;28;20057;-88
2022/05/10 09:06:43;;;;;;;5.75;1.25;;;22.80;99.90;;;;;;4186834;28;20049;-88
2022/05/10 09:08:51;;;;;;;1.55;1.30;;;22.90;99.90;;;;;;4194262;28;20041;-88
2022/05/10 09:11:07;;;;;;;2.15;1.08;;;23.00;99.90;;;;;;4192744;28;20052;-89
2022/05/10 09:13:16;;;;;;;1.05;0.95;;;23.00;99.60;;;;;;4188672;28;20055;-88
2022/05/10 09:15:20;;;;;;;1.83;0.80;;;23.20;99.90;;;;;;4177729;28;20041;-88
2022/05/10 09:17:24;;;;;;;1.63;0.93;;;23.20;98.20;;;;;;4180934;28;20141;-88
2022/05/10 09:19:39;;;;;;;4.35;1.00;;;23.20;98.20;;;;;;4187885;28;20037;-89
2022/05/10 09:22:07;;;;;;;2.70;0.80;;;23.50;99.90;;;;;;4194706;28;20117;-89
2022/05/10 09:24:46;;;;;;;4.38;1.00;;;23.90;97.90;;;;;;4194298;28;20052;-88
2022/05/10 09:26:53;;;;;;;6.95;1.02;;;23.90;95.80;;;;;;4177102;28;20045;-89
2022/05/10 09:29:17;;;;;;;3.88;1.00;;;23.80;97.20;;;;;;4194654;28;20062;-88
2022/05/10 09:36:31;;;;;;;4.72;0.93;;;24.40;97.70;;;;;;4182562;28;20064;-88
2022/05/10 09:38:42;;;;;;;3.85;0.80;;;24.60;96.40;;;;;;4180256;28;20048;-88
2022/05/10 09:40:48;;;;;;;3.55;0.90;;;24.50;95.00;;;;;;4180863;28;20055;-88
2022/05/10 09:42:53;;;;;;;9.15;1.27;;;24.30;94.50;;;;;;4188599;28;20048;-88
2022/05/10 09:45:21;;;;;;;2.90;0.80;;;24.40;94.30;;;;;;4176170;28;20092;-88
2022/05/10 09:47:24;;;;;;;5.43;0.90;;;24.50;93.70;;;;;;4186213;28;20053;-88
2022/05/10 09:49:37;;;;;;;5.57;0.80;;;24.90;94.00;;;;;;4192704;28;20049;-88
2022/05/10 09:51:44;;;;;;;4.20;0.70;;;24.60;92.20;;;;;;4192503;28;20503;-88
2022/05/10 09:53:48;;;;;;;2.97;1.00;;;24.30;92.60;;;;;;4164110;28;20144;-89
2022/05/10 09:56:04;;;;;;;3.70;1.00;;;24.10;93.10;;;;;;4189223;28;20564;-88
2022/05/10 09:58:22;;;;;;;1.30;0.80;;;24.10;92.80;;;;;;4184302;28;20048;-87
2022/05/10 10:00:45;;;;;;;5.50;0.80;;;24.20;93.60;;;;;;4185220;28;20049;-88
2022/05/10 10:02:56;;;;;;;2.33;1.00;;;24.00;92.50;;;;;;4193592;28;20056;-88
2022/05/10 10:04:59;;;;;;;4.90;1.00;;;23.90;93.20;;;;;;4178232;28;20707;-88
2022/05/10 10:07:04;;;;;;;7.38;0.70;;;23.80;92.90;;;;;;4194438;28;20060;-88
2022/05/10 10:09:07;;;;;;;11.27;1.13;;;23.90;93.50;;;;;;4176703;28;20666;-88
2022/05/10 10:11:21;;;;;;;5.60;0.90;;;23.80;92.30;;;;;;4188998;28;20044;-88
2022/05/10 10:13:32;;;;;;;1.02;0.80;;;23.60;92.30;;;;;;4192732;28;20102;-89
2022/05/10 10:15:42;;;;;;;2.97;0.75;;;24.20;94.90;;;;;;4194259;28;20507;-88
2022/05/10 10:17:51;;;;;;;1.55;0.82;;;24.60;93.30;;;;;;4186538;28;20110;-88
2022/05/10 10:20:32;;;;;;;4.88;0.80;;;24.50;91.40;;;;;;4169996;28;20067;-89
2022/05/10 10:22:46;;;;;;;4.90;0.70;;;24.70;95.80;;;;;;4168532;28;20098;-89
2022/05/10 10:24:56;;;;;;;5.82;0.90;;;24.80;90.60;;;;;;4189633;28;20037;-88
2022/05/10 10:27:06;;;;;;;5.38;0.70;;;24.70;91.70;;;;;;4181552;28;20141;-90
2022/05/10 10:29:32;;;;;;;2.35;1.20;;;24.40;92.20;;;;;;4197389;28;20040;-89
2022/05/10 10:31:44;;;;;;;6.40;0.70;;;24.50;92.20;;;;;;4196813;28;20044;-89
2022/05/10 10:34:20;;;;;;;4.25;0.80;;;24.70;92.80;;;;;;4180846;28;20044;-89
2022/05/10 10:36:28;;;;;;;4.82;0.70;;;24.70;91.90;;;;;;4192332;28;20080;-89
2022/05/10 10:38:37;;;;;;;0.90;0.70;;;25.00;92.40;;;;;;4192125;28;20037;-89
2022/05/10 10:40:55;;;;;;;4.03;0.70;;;25.30;91.40;;;;;;4185078;28;20401;-89
2022/05/10 10:43:13;;;;;;;2.08;0.70;;;25.30;91.00;;;;;;4195144;28;20051;-88
2022/05/10 10:45:17;;;;;;;1.52;0.88;;;25.00;91.00;;;;;;4192125;28;20049;-89
2022/05/10 10:47:45;;;;;;;6.35;0.80;;;25.10;90.50;;;;;;4171325;28;20049;-88
2022/05/10 10:50:08;;;;;;;1.30;0.80;;;25.30;91.50;;;;;;4193481;28;20306;-88
2022/05/10 10:52:13;;;;;;;4.72;1.02;;;25.80;86.70;;;;;;4198845;28;20052;-88
2022/05/10 10:54:20;;;;;;;5.20;1.15;;;25.70;87.30;;;;;;4199966;28;20052;-88
2022/05/10 10:56:38;;;;;;;3.63;0.60;;;26.00;89.90;;;;;;4192307;28;20274;-89
2022/05/10 10:58:58;;;;;;;5.68;0.60;;;25.80;87.90;;;;;;4198230;28;20130;-88
2022/05/10 11:01:18;;;;;;;6.38;0.98;;;26.00;88.40;;;;;;4196179;28;20503;-89
2022/05/10 11:03:33;;;;;;;3.50;0.80;;;26.60;89.90;;;;;;4198618;28;20049;-89
2022/05/10 11:05:44;;;;;;;9.23;0.70;;;26.90;90.80;;;;;;4191694;28;20536;-89
2022/05/10 11:08:04;;;;;;;5.05;0.77;;;26.80;85.50;;;;;;4195869;28;20044;-88
2022/05/10 11:10:10;;;;;;;2.55;0.60;;;26.60;85.30;;;;;;4197684;28;20048;-89
2022/05/10 11:12:27;;;;;;;4.78;0.82;;;26.30;80.30;;;;;;4179889;28;20056;-89
2022/05/10 11:15:16;;;;;;;3.50;0.57;;;26.70;86.90;;;;;;4179596;28;20513;-89
2022/05/10 11:17:27;;;;;;;5.75;0.55;;;26.90;86.20;;;;;;4155384;28;20045;-88
2022/05/10 11:20:11;;;;;;;3.53;0.60;;;26.30;78.60;;;;;;4179277;28;20128;-88
2022/05/10 11:22:29;;;;;;;4.53;0.60;;;26.10;80.40;;;;;;4194294;28;20044;-88
2022/05/10 11:24:49;;;;;;;2.47;0.65;;;27.00;84.30;;;;;;4196010;28;20456;-88
2022/05/10 11:27:12;;;;;;;2.10;0.52;;;27.30;84.00;;;;;;4196673;28;20094;-88
2022/05/10 11:29:36;;;;;;;2.45;0.60;;;27.40;85.60;;;;;;4195983;28;20082;-88
2022/05/10 11:31:56;;;;;;;2.30;1.10;;;27.60;84.10;;;;;;4186748;28;20073;-88